Aviation Digital Data Service (ADDS)

Output produced by METARs form (0102 UTC 30 March 2015)
found at http://aviationweather.gov/adds/metars/
 
KORF 292338Z 3000/3024 24006KT P6SM SCT250 
     FM300900 22011KT P6SM OVC100 
     FM301300 23015KT P6SM -RA OVC030 
     FM301700 24015G20KT P6SM SCT030